createdAt,value
2022-10-14T00:02:51.013Z,12.23
2022-10-14T00:06:37.133Z,12.23
2022-10-14T00:10:20.298Z,12.22
2022-10-14T00:14:06.544Z,12.21
2022-10-14T00:18:02.700Z,12.20
2022-10-14T00:21:47.308Z,12.22
2022-10-14T00:25:30.133Z,12.22
2022-10-14T00:29:14.769Z,12.21
2022-10-14T00:33:10.972Z,12.25
2022-10-14T00:36:55.173Z,12.24
2022-10-14T00:40:37.994Z,12.24
2022-10-14T00:45:07.371Z,12.27
2022-10-14T00:48:50.186Z,12.26
2022-10-14T00:52:34.239Z,12.26
2022-10-14T00:56:19.011Z,12.27
2022-10-14T01:00:05.704Z,12.23
2022-10-14T01:03:49.113Z,12.23
2022-10-14T01:07:52.327Z,12.20
2022-10-14T01:11:41.699Z,12.22
2022-10-14T01:15:30.570Z,12.21
2022-10-14T01:19:35.762Z,12.23
2022-10-14T01:23:54.875Z,12.21
2022-10-14T01:27:52.827Z,12.21
2022-10-14T01:31:38.130Z,12.22
2022-10-14T01:35:30.643Z,12.22
2022-10-14T01:39:16.348Z,12.11
2022-10-14T01:43:03.744Z,12.00
2022-10-14T01:46:51.335Z,12.09
2022-10-14T01:50:36.477Z,12.07
2022-10-14T01:54:22.067Z,11.97
2022-10-14T01:58:05.744Z,11.93
2022-10-14T02:01:49.939Z,11.97
2022-10-14T02:05:36.246Z,11.82
2022-10-14T02:09:23.885Z,11.79
2022-10-14T02:13:16.207Z,11.67
2022-10-14T02:17:03.827Z,11.75
2022-10-14T02:20:49.387Z,11.70
2022-10-14T02:24:34.849Z,11.60
2022-10-14T02:28:19.589Z,11.65
2022-10-14T02:32:04.622Z,11.64
2022-10-14T02:35:49.293Z,11.58
2022-10-14T02:39:33.936Z,11.55
2022-10-14T02:43:22.512Z,11.55
2022-10-14T02:47:06.616Z,11.57
2022-10-14T02:50:51.434Z,11.54
2022-10-14T02:54:34.368Z,11.60
2022-10-14T02:58:17.140Z,11.57
2022-10-14T03:02:02.239Z,11.57
2022-10-14T03:05:46.325Z,11.55
2022-10-14T03:09:29.132Z,11.56
2022-10-14T03:13:11.882Z,11.59
2022-10-14T03:16:54.535Z,11.60
2022-10-14T03:20:37.317Z,11.63
2022-10-14T03:24:21.329Z,11.67
2022-10-14T03:28:04.387Z,11.68
2022-10-14T03:31:47.083Z,11.73
2022-10-14T03:35:29.845Z,11.71
2022-10-14T03:39:12.628Z,11.72
2022-10-14T03:42:59.061Z,11.75
2022-10-14T03:46:41.721Z,11.72
2022-10-14T03:50:25.576Z,11.70
2022-10-14T03:54:08.244Z,11.70
2022-10-14T03:57:51.167Z,11.69
2022-10-14T04:01:35.366Z,11.69
2022-10-14T04:05:18.443Z,11.72
2022-10-14T04:09:01.195Z,11.73
2022-10-14T04:12:44.143Z,11.72
2022-10-14T04:16:27.097Z,11.74
2022-10-14T04:20:11.566Z,11.75
2022-10-14T04:23:54.208Z,11.76
2022-10-14T04:27:36.993Z,11.73
2022-10-14T04:31:19.640Z,11.76
2022-10-14T04:35:02.452Z,11.76
2022-10-14T04:38:46.447Z,11.75
2022-10-14T04:42:31.732Z,11.78
2022-10-14T04:46:17.510Z,11.78
2022-10-14T04:50:00.196Z,11.76
2022-10-14T04:53:42.950Z,11.76
2022-10-14T04:57:27.039Z,11.75
2022-10-14T05:01:09.851Z,11.74
2022-10-14T05:04:52.524Z,11.74
2022-10-14T05:08:35.400Z,11.75
2022-10-14T05:12:18.234Z,11.73
2022-10-14T05:16:03.185Z,11.70
2022-10-14T05:19:46.290Z,11.71
2022-10-14T05:23:28.925Z,11.71
2022-10-14T05:27:11.637Z,11.73
2022-10-14T05:30:54.279Z,11.78
2022-10-14T05:34:38.321Z,11.75
2022-10-14T05:38:21.006Z,11.77
2022-10-14T05:42:03.688Z,11.82
2022-10-14T05:45:46.362Z,11.88
2022-10-14T05:49:29.087Z,11.89
2022-10-14T05:53:13.443Z,11.88
2022-10-14T05:56:56.119Z,11.87
2022-10-14T06:00:38.804Z,11.87
2022-10-14T06:04:22.073Z,11.82
2022-10-14T06:08:05.077Z,11.84
2022-10-14T06:11:49.450Z,11.84
2022-10-14T06:15:32.208Z,11.86
2022-10-14T06:19:15.068Z,11.86
2022-10-14T06:22:59.601Z,11.86
2022-10-14T06:26:42.241Z,11.94
2022-10-14T06:30:26.326Z,11.93
2022-10-14T06:34:09.142Z,11.96
2022-10-14T06:37:51.792Z,11.98
2022-10-14T06:41:34.479Z,12.06
2022-10-14T06:45:17.245Z,12.12
2022-10-14T06:49:01.267Z,12.18
2022-10-14T06:52:45.954Z,12.24
2022-10-14T06:56:28.567Z,12.25
2022-10-14T07:00:11.972Z,13.05
2022-10-14T07:03:56.728Z,13.93
2022-10-14T07:07:41.125Z,14.49
2022-10-14T07:11:23.783Z,14.83
2022-10-14T07:15:07.597Z,15.07
2022-10-14T07:18:50.487Z,15.13
2022-10-14T07:22:38.598Z,15.13
2022-10-14T07:26:23.145Z,15.35
2022-10-14T07:30:06.869Z,15.59
2022-10-14T07:33:49.594Z,15.71
2022-10-14T07:37:32.591Z,15.79
2022-10-14T07:41:18.232Z,15.87
2022-10-14T07:45:02.712Z,15.89
2022-10-14T07:48:56.679Z,16.01
2022-10-14T07:52:40.094Z,16.01
2022-10-14T07:56:23.332Z,16.04
2022-10-14T08:00:09.025Z,15.95
2022-10-14T08:03:51.957Z,15.92
2022-10-14T08:07:34.620Z,15.66
2022-10-14T08:11:18.898Z,15.31
2022-10-14T08:15:01.829Z,15.07
2022-10-14T08:18:46.544Z,14.98
2022-10-14T08:22:29.185Z,14.82
2022-10-14T08:26:22.897Z,14.76
2022-10-14T08:30:10.199Z,14.79
2022-10-14T08:33:55.054Z,14.80
2022-10-14T08:37:37.887Z,14.82
2022-10-14T08:41:34.039Z,14.82
2022-10-14T08:45:20.265Z,14.80
2022-10-14T08:49:11.202Z,14.84
2022-10-14T08:52:57.639Z,14.85
2022-10-14T08:56:40.742Z,14.88
2022-10-14T09:00:24.129Z,14.86
2022-10-14T09:04:09.231Z,14.96
2022-10-14T09:07:54.422Z,15.12
2022-10-14T09:11:41.578Z,15.30
2022-10-14T09:15:28.810Z,15.42
2022-10-14T09:19:16.894Z,15.55
2022-10-14T09:23:07.327Z,15.63
2022-10-14T09:26:52.403Z,15.67
2022-10-14T09:30:47.540Z,15.75
2022-10-14T09:34:34.530Z,15.71
2022-10-14T09:38:17.670Z,15.77
2022-10-14T09:42:01.135Z,15.74
2022-10-14T09:45:52.923Z,15.79
2022-10-14T09:49:40.894Z,15.78
2022-10-14T09:53:28.822Z,15.82
2022-10-14T09:57:19.654Z,15.95
2022-10-14T10:01:03.094Z,16.01
2022-10-14T10:04:48.203Z,16.01
2022-10-14T10:08:31.467Z,16.08
2022-10-14T10:12:24.604Z,16.12
2022-10-14T10:16:09.031Z,16.10
2022-10-14T10:20:08.159Z,16.11
2022-10-14T10:23:53.640Z,16.11
2022-10-14T10:27:38.252Z,16.16
2022-10-14T10:31:33.337Z,16.26
2022-10-14T10:35:21.575Z,16.32
2022-10-14T10:39:09.934Z,16.43
2022-10-14T10:43:26.101Z,16.57
2022-10-14T10:47:19.117Z,16.64
2022-10-14T10:51:05.555Z,16.69
2022-10-14T10:54:54.773Z,16.64
2022-10-14T10:58:44.213Z,16.71
2022-10-14T11:02:59.818Z,16.81
2022-10-14T11:07:06.200Z,17.00
2022-10-14T11:11:12.768Z,17.28
2022-10-14T11:15:15.382Z,17.50
2022-10-14T11:19:03.607Z,17.64
2022-10-14T11:23:04.657Z,17.76
2022-10-14T11:26:59.109Z,17.92
2022-10-14T11:31:37.069Z,18.05
2022-10-14T11:35:27.194Z,18.24
2022-10-14T11:39:21.170Z,18.22
2022-10-14T11:43:13.600Z,18.01
2022-10-14T11:46:58.441Z,17.98
2022-10-14T11:50:44.083Z,18.39
2022-10-14T11:54:32.903Z,18.30
2022-10-14T11:58:17.394Z,18.22
2022-10-14T12:02:02.661Z,18.26
2022-10-14T12:05:48.563Z,18.14
2022-10-14T12:09:41.525Z,18.14
2022-10-14T12:13:29.095Z,18.36
2022-10-14T12:17:20.784Z,18.44
2022-10-14T12:21:11.036Z,18.58
2022-10-14T12:24:56.320Z,18.77
2022-10-14T12:28:39.249Z,18.74
2022-10-14T12:32:25.684Z,18.68
2022-10-14T12:36:31.874Z,18.57
2022-10-14T12:40:30.689Z,18.49
2022-10-14T12:44:15.799Z,18.47
2022-10-14T12:48:15.104Z,18.31
2022-10-14T12:51:59.056Z,18.27
2022-10-14T12:55:50.960Z,18.23
2022-10-14T12:59:36.385Z,18.12
2022-10-14T13:03:22.247Z,18.11
2022-10-14T13:07:45.823Z,18.07
2022-10-14T13:11:30.972Z,18.16
2022-10-14T13:15:47.126Z,18.18
2022-10-14T13:19:46.855Z,18.13
2022-10-14T13:23:37.727Z,18.09
2022-10-14T13:27:30.119Z,17.98
2022-10-14T13:31:17.355Z,17.89
2022-10-14T13:35:10.176Z,17.82
2022-10-14T13:38:55.553Z,17.76
2022-10-14T13:42:40.769Z,17.51
2022-10-14T13:46:28.755Z,17.33
2022-10-14T13:50:12.886Z,17.15
2022-10-14T13:53:57.046Z,17.03
2022-10-14T13:58:10.993Z,16.94
2022-10-14T14:01:44.114Z,16.94
2022-10-14T14:05:27.616Z,16.81
2022-10-14T14:09:20.143Z,16.31
2022-10-14T14:13:05.832Z,15.86
2022-10-14T14:16:53.370Z,15.58
2022-10-14T14:20:38.468Z,15.48
2022-10-14T14:24:25.085Z,15.20
2022-10-14T14:28:14.761Z,14.95
2022-10-14T14:32:07.071Z,14.80
2022-10-14T14:35:55.535Z,14.65
2022-10-14T14:39:38.216Z,14.66
2022-10-14T14:43:24.103Z,14.92
2022-10-14T14:47:07.231Z,15.55
2022-10-14T14:50:50.543Z,16.28
2022-10-14T14:54:33.280Z,16.41
2022-10-14T14:58:26.125Z,16.05
2022-10-14T15:02:16.782Z,15.87
2022-10-14T15:06:01.082Z,15.72
2022-10-14T15:09:45.230Z,15.66
2022-10-14T15:13:44.876Z,15.60
2022-10-14T15:17:31.215Z,15.55
2022-10-14T15:21:19.957Z,15.52
2022-10-14T15:25:13.521Z,15.57
2022-10-14T15:29:14.403Z,15.46
2022-10-14T15:33:00.248Z,15.35
2022-10-14T15:36:42.908Z,15.27
2022-10-14T15:40:29.523Z,15.16
2022-10-14T15:44:13.605Z,15.16
2022-10-14T15:47:58.448Z,15.16
2022-10-14T15:51:43.706Z,15.12
2022-10-14T15:55:27.720Z,15.04
2022-10-14T15:59:16.108Z,14.95
2022-10-14T16:02:59.787Z,14.92
2022-10-14T16:06:42.464Z,14.87
2022-10-14T16:10:29.228Z,14.77
2022-10-14T16:14:16.094Z,14.73
2022-10-14T16:17:58.756Z,14.68
2022-10-14T16:21:41.536Z,14.67
2022-10-14T16:25:29.751Z,14.61
2022-10-14T16:29:12.446Z,14.59
2022-10-14T16:32:56.701Z,14.54
2022-10-14T16:36:40.566Z,14.45
2022-10-14T16:40:24.918Z,14.36
2022-10-14T16:44:07.822Z,14.27
2022-10-14T16:47:50.515Z,14.22
2022-10-14T16:51:34.600Z,14.25
2022-10-14T16:55:17.687Z,14.25
2022-10-14T16:59:01.074Z,14.24
2022-10-14T17:02:43.961Z,14.25
2022-10-14T17:06:27.145Z,14.19
2022-10-14T17:10:11.965Z,14.13
2022-10-14T17:13:55.499Z,14.09
2022-10-14T17:17:39.979Z,14.06
2022-10-14T17:21:28.332Z,14.02
2022-10-14T17:25:12.579Z,14.02
2022-10-14T17:28:55.415Z,14.06
2022-10-14T17:32:38.088Z,14.05
2022-10-14T17:36:22.190Z,13.98
2022-10-14T17:40:05.387Z,13.99
2022-10-14T17:43:49.949Z,13.97
2022-10-14T17:47:35.577Z,13.99
2022-10-14T17:51:18.530Z,14.03
2022-10-14T17:55:01.653Z,13.97
2022-10-14T17:58:44.448Z,13.99
2022-10-14T18:02:28.659Z,13.96
2022-10-14T18:06:13.403Z,13.96
2022-10-14T18:09:56.126Z,13.92
2022-10-14T18:17:27.727Z,13.89
2022-10-14T18:21:11.153Z,13.90
2022-10-14T18:24:53.771Z,13.88
2022-10-14T18:28:37.254Z,13.89
2022-10-14T18:32:20.242Z,13.88
2022-10-14T18:36:05.487Z,13.91
2022-10-14T18:39:48.184Z,13.89
2022-10-14T18:43:34.022Z,13.91
2022-10-14T18:47:16.838Z,13.89
2022-10-14T18:50:59.915Z,13.89
2022-10-14T18:54:43.930Z,13.87
2022-10-14T18:58:27.050Z,13.85
2022-10-14T19:02:12.353Z,13.88
2022-10-14T19:05:58.132Z,13.79
2022-10-14T19:09:40.832Z,13.81
2022-10-14T19:13:27.861Z,13.80
2022-10-14T19:17:10.836Z,13.81
2022-10-14T19:20:56.638Z,13.81
2022-10-14T19:24:39.308Z,13.84
2022-10-14T19:28:22.423Z,13.82
2022-10-14T19:32:06.491Z,13.82
2022-10-14T19:35:57.781Z,13.79
2022-10-14T19:39:40.970Z,13.76
2022-10-14T19:43:23.773Z,13.77
2022-10-14T19:47:07.850Z,13.84
2022-10-14T19:50:50.467Z,13.81
2022-10-14T19:54:33.246Z,13.79
2022-10-14T19:58:15.944Z,13.76
2022-10-14T20:01:58.625Z,13.74
2022-10-14T20:05:48.480Z,13.77
2022-10-14T20:09:31.159Z,13.76
2022-10-14T20:13:13.772Z,13.77
2022-10-14T20:16:56.378Z,13.77
2022-10-14T20:21:03.490Z,13.80
2022-10-14T20:24:46.173Z,13.83
2022-10-14T20:28:28.942Z,13.82
2022-10-14T20:32:11.839Z,13.83
2022-10-14T20:36:02.008Z,13.85
2022-10-14T20:39:46.128Z,13.84
2022-10-14T20:43:29.224Z,13.83
2022-10-14T20:47:12.151Z,13.84
2022-10-14T20:51:19.109Z,13.83
2022-10-14T20:55:03.174Z,13.84
2022-10-14T20:58:45.798Z,13.81
2022-10-14T21:02:28.563Z,13.87
2022-10-14T21:06:29.396Z,13.88
2022-10-14T21:10:13.399Z,13.90
2022-10-14T21:13:57.907Z,13.89
2022-10-14T21:17:40.541Z,13.84
2022-10-14T21:21:31.708Z,13.84
2022-10-14T21:25:15.851Z,13.80
2022-10-14T21:28:58.791Z,13.80
2022-10-14T21:32:41.738Z,13.78
2022-10-14T21:36:45.602Z,13.74
2022-10-14T21:40:29.579Z,13.77
2022-10-14T21:44:16.968Z,13.76
2022-10-14T21:48:00.276Z,13.68
2022-10-14T21:51:51.053Z,13.68
2022-10-14T21:55:35.106Z,13.68
2022-10-14T21:59:19.549Z,13.68
2022-10-14T22:03:02.889Z,13.61
2022-10-14T22:06:55.416Z,13.57
2022-10-14T22:10:43.793Z,13.56
2022-10-14T22:14:26.650Z,13.51
2022-10-14T22:18:09.865Z,13.42
2022-10-14T22:21:52.586Z,13.37
2022-10-14T22:25:35.809Z,13.33
2022-10-14T22:29:23.300Z,13.27
2022-10-14T22:37:22.912Z,13.25
2022-10-14T22:41:07.726Z,13.31
2022-10-14T22:44:51.746Z,13.23
2022-10-14T22:48:35.363Z,13.17
2022-10-14T22:52:24.147Z,13.17
2022-10-14T22:56:08.925Z,13.10
2022-10-14T22:59:53.002Z,13.09
2022-10-14T23:03:36.035Z,13.03
2022-10-14T23:07:29.480Z,12.95
2022-10-14T23:11:15.388Z,12.97
2022-10-14T23:14:59.549Z,12.99
2022-10-14T23:22:44.761Z,12.98
2022-10-14T23:26:31.480Z,12.94
2022-10-14T23:30:15.596Z,12.82
2022-10-14T23:33:59.048Z,12.81
2022-10-14T23:37:41.699Z,12.86
2022-10-14T23:41:24.822Z,12.82
2022-10-14T23:45:08.697Z,12.77
2022-10-14T23:49:07.010Z,12.68
2022-10-14T23:52:50.639Z,12.63
2022-10-14T23:56:33.331Z,12.68
